METAR Data
IDs: Format: Raw Decoded Include TAF

Data at: 0243 UTC 12 May 2021

METAR for:K5SM (Sunlight Peak, CO, US)
Text:K5SM 120235Z AUTO 25003KT 10SM M03/M07 A3035 RMK AO2
Temperature: -3.0°C ( 27°F)
Dewpoint: -7.0°C ( 19°F) [RH = 74%]
Pressure (altimeter):30.35 inches Hg (1027.9 mb)
Winds:from the WSW (250 degrees) at 3 MPH (3 knots; 1.5 m/s)
Visibility:10 or more sm (16+ km)
QC Flag:automated observation with no human augmentation